Centerton, Ohio
Current Conditions -  °F | °C
As of 8:52 PM on Friday 28 Nov 2014 (Local Time) from KMFD Reporting Station
Broken Clouds Broken Clouds  
Wind Chill: 17°   Ceiling: 10000
Heat Index: 28°   Visibility: 10mi
Dew Point: 19°   Wind: 13mph
Humidity: 69%   Direction: 160°SSE
Pressure: 30.12"   Gusts: NA
Location:  41.0768°N, 82.7214°W
Report Text: KMFD 290152Z 16011KT 10SM BKN100 M02/M07 A3012 RMK AO2 SLP216 T10221072
Loading
Personal Weather Stations






























Interactive Weather Map New forecast layout! Learn more

10-Day Weather Forecast

Advertisements
Track Severe Weather on mobile